sensor_id;sensor_type;location;lat;lon;timestamp;P1;durP1;ratioP1;P2;durP2;ratioP2
3573;SDS011;1801;51.050;6.246;2022-07-23T00:02:15;12.63;;;7.47;;
3573;SDS011;1801;51.050;6.246;2022-07-23T00:04:40;15.30;;;8.03;;
3573;SDS011;1801;51.050;6.246;2022-07-23T00:07:05;15.43;;;8.77;;
3573;SDS011;1801;51.050;6.246;2022-07-23T00:09:31;15.20;;;8.93;;
3573;SDS011;1801;51.050;6.246;2022-07-23T00:11:56;15.67;;;8.50;;
3573;SDS011;1801;51.050;6.246;2022-07-23T00:14:21;18.43;;;8.20;;
3573;SDS011;1801;51.050;6.246;2022-07-23T00:16:46;18.90;;;8.77;;
3573;SDS011;1801;51.050;6.246;2022-07-23T00:19:12;15.00;;;9.63;;
3573;SDS011;1801;51.050;6.246;2022-07-23T00:21:37;17.10;;;8.40;;
3573;SDS011;1801;51.050;6.246;2022-07-23T00:24:02;20.60;;;8.83;;
3573;SDS011;1801;51.050;6.246;2022-07-23T00:26:27;14.87;;;9.00;;
3573;SDS011;1801;51.050;6.246;2022-07-23T00:28:53;26.43;;;8.53;;
3573;SDS011;1801;51.050;6.246;2022-07-23T00:31:18;13.70;;;8.50;;
3573;SDS011;1801;51.050;6.246;2022-07-23T00:33:43;20.73;;;8.90;;
3573;SDS011;1801;51.050;6.246;2022-07-23T00:36:08;19.63;;;9.20;;
3573;SDS011;1801;51.050;6.246;2022-07-23T00:38:34;13.73;;;8.50;;
3573;SDS011;1801;51.050;6.246;2022-07-23T00:40:59;18.97;;;9.33;;
3573;SDS011;1801;51.050;6.246;2022-07-23T00:43:24;14.37;;;8.60;;
3573;SDS011;1801;51.050;6.246;2022-07-23T00:45:50;15.53;;;9.33;;
3573;SDS011;1801;51.050;6.246;2022-07-23T00:48:15;14.83;;;8.23;;
3573;SDS011;1801;51.050;6.246;2022-07-23T00:50:40;15.03;;;9.60;;
3573;SDS011;1801;51.050;6.246;2022-07-23T00:53:05;17.90;;;10.10;;
3573;SDS011;1801;51.050;6.246;2022-07-23T00:55:31;17.37;;;9.00;;
3573;SDS011;1801;51.050;6.246;2022-07-23T00:57:56;13.60;;;8.70;;
3573;SDS011;1801;51.050;6.246;2022-07-23T01:00:22;16.77;;;9.40;;
3573;SDS011;1801;51.050;6.246;2022-07-23T01:02:47;19.10;;;9.80;;
3573;SDS011;1801;51.050;6.246;2022-07-23T01:05:12;14.13;;;8.77;;
3573;SDS011;1801;51.050;6.246;2022-07-23T01:07:37;18.20;;;9.50;;
3573;SDS011;1801;51.050;6.246;2022-07-23T01:10:03;17.57;;;10.07;;
3573;SDS011;1801;51.050;6.246;2022-07-23T01:12:28;17.60;;;9.60;;
3573;SDS011;1801;51.050;6.246;2022-07-23T01:14:54;16.20;;;9.97;;
3573;SDS011;1801;51.050;6.246;2022-07-23T01:17:19;16.67;;;9.73;;
3573;SDS011;1801;51.050;6.246;2022-07-23T01:19:44;13.67;;;8.93;;
3573;SDS011;1801;51.050;6.246;2022-07-23T01:22:10;16.23;;;9.03;;
3573;SDS011;1801;51.050;6.246;2022-07-23T01:24:35;15.20;;;9.70;;
3573;SDS011;1801;51.050;6.246;2022-07-23T01:27:00;20.10;;;9.97;;
3573;SDS011;1801;51.050;6.246;2022-07-23T01:29:25;17.63;;;10.23;;
3573;SDS011;1801;51.050;6.246;2022-07-23T01:31:51;17.40;;;10.30;;
3573;SDS011;1801;51.050;6.246;2022-07-23T01:34:16;17.23;;;10.30;;
3573;SDS011;1801;51.050;6.246;2022-07-23T01:36:41;15.60;;;8.40;;
3573;SDS011;1801;51.050;6.246;2022-07-23T01:39:07;16.50;;;10.53;;
3573;SDS011;1801;51.050;6.246;2022-07-23T01:41:32;20.47;;;10.10;;
3573;SDS011;1801;51.050;6.246;2022-07-23T01:43:58;19.10;;;10.80;;
3573;SDS011;1801;51.050;6.246;2022-07-23T01:46:23;19.70;;;10.30;;
3573;SDS011;1801;51.050;6.246;2022-07-23T01:48:48;19.43;;;10.20;;
3573;SDS011;1801;51.050;6.246;2022-07-23T01:51:14;22.17;;;9.80;;
3573;SDS011;1801;51.050;6.246;2022-07-23T01:53:39;17.20;;;9.60;;
3573;SDS011;1801;51.050;6.246;2022-07-23T01:56:04;17.63;;;9.67;;
3573;SDS011;1801;51.050;6.246;2022-07-23T01:58:29;20.13;;;10.93;;
3573;SDS011;1801;51.050;6.246;2022-07-23T02:00:55;18.37;;;10.13;;
3573;SDS011;1801;51.050;6.246;2022-07-23T02:03:21;14.07;;;10.33;;
3573;SDS011;1801;51.050;6.246;2022-07-23T02:05:46;19.83;;;11.40;;
3573;SDS011;1801;51.050;6.246;2022-07-23T02:08:11;17.50;;;10.73;;
3573;SDS011;1801;51.050;6.246;2022-07-23T02:10:37;20.30;;;10.83;;
3573;SDS011;1801;51.050;6.246;2022-07-23T02:13:02;16.33;;;9.90;;
3573;SDS011;1801;51.050;6.246;2022-07-23T02:15:27;18.40;;;9.70;;
3573;SDS011;1801;51.050;6.246;2022-07-23T02:17:53;16.90;;;9.40;;
3573;SDS011;1801;51.050;6.246;2022-07-23T02:20:18;18.73;;;9.47;;
3573;SDS011;1801;51.050;6.246;2022-07-23T02:22:44;16.67;;;10.13;;
3573;SDS011;1801;51.050;6.246;2022-07-23T02:25:09;20.57;;;10.80;;
3573;SDS011;1801;51.050;6.246;2022-07-23T02:27:34;19.20;;;10.60;;
3573;SDS011;1801;51.050;6.246;2022-07-23T02:30:00;19.40;;;10.20;;
3573;SDS011;1801;51.050;6.246;2022-07-23T02:32:25;19.87;;;10.20;;
3573;SDS011;1801;51.050;6.246;2022-07-23T02:34:51;21.03;;;10.70;;
3573;SDS011;1801;51.050;6.246;2022-07-23T02:37:16;14.40;;;9.33;;
3573;SDS011;1801;51.050;6.246;2022-07-23T02:39:41;14.37;;;8.97;;
3573;SDS011;1801;51.050;6.246;2022-07-23T02:42:07;16.97;;;9.60;;
3573;SDS011;1801;51.050;6.246;2022-07-23T02:44:32;16.17;;;9.90;;
3573;SDS011;1801;51.050;6.246;2022-07-23T02:46:57;17.80;;;9.00;;
3573;SDS011;1801;51.050;6.246;2022-07-23T02:49:22;18.30;;;10.37;;
3573;SDS011;1801;51.050;6.246;2022-07-23T02:51:48;13.60;;;9.00;;
3573;SDS011;1801;51.050;6.246;2022-07-23T02:54:13;15.53;;;9.77;;
3573;SDS011;1801;51.050;6.246;2022-07-23T02:56:38;18.27;;;9.93;;
3573;SDS011;1801;51.050;6.246;2022-07-23T02:59:03;14.47;;;8.70;;
3573;SDS011;1801;51.050;6.246;2022-07-23T03:01:28;13.43;;;9.10;;
3573;SDS011;1801;51.050;6.246;2022-07-23T03:03:54;19.77;;;10.70;;
3573;SDS011;1801;51.050;6.246;2022-07-23T03:06:19;15.63;;;9.40;;
3573;SDS011;1801;51.050;6.246;2022-07-23T03:08:44;18.73;;;9.87;;
3573;SDS011;1801;51.050;6.246;2022-07-23T03:11:09;19.20;;;10.43;;
3573;SDS011;1801;51.050;6.246;2022-07-23T03:13:38;22.33;;;10.50;;
3573;SDS011;1801;51.050;6.246;2022-07-23T03:16:03;20.67;;;12.33;;
3573;SDS011;1801;51.050;6.246;2022-07-23T03:18:29;22.53;;;13.23;;
3573;SDS011;1801;51.050;6.246;2022-07-23T03:20:54;18.80;;;10.10;;
3573;SDS011;1801;51.050;6.246;2022-07-23T03:23:19;25.37;;;12.20;;
3573;SDS011;1801;51.050;6.246;2022-07-23T03:25:44;16.07;;;10.43;;
3573;SDS011;1801;51.050;6.246;2022-07-23T03:28:11;17.60;;;10.30;;
3573;SDS011;1801;51.050;6.246;2022-07-23T03:30:37;20.77;;;11.47;;
3573;SDS011;1801;51.050;6.246;2022-07-23T03:33:02;26.07;;;11.37;;
3573;SDS011;1801;51.050;6.246;2022-07-23T03:35:27;21.77;;;10.80;;
3573;SDS011;1801;51.050;6.246;2022-07-23T03:37:52;25.00;;;12.00;;
3573;SDS011;1801;51.050;6.246;2022-07-23T03:40:18;18.90;;;10.97;;
3573;SDS011;1801;51.050;6.246;2022-07-23T03:42:43;15.97;;;10.70;;
3573;SDS011;1801;51.050;6.246;2022-07-23T03:45:08;21.37;;;12.30;;
3573;SDS011;1801;51.050;6.246;2022-07-23T03:47:34;23.93;;;11.40;;
3573;SDS011;1801;51.050;6.246;2022-07-23T03:49:59;19.30;;;12.10;;
3573;SDS011;1801;51.050;6.246;2022-07-23T03:52:24;17.67;;;10.73;;
3573;SDS011;1801;51.050;6.246;2022-07-23T03:54:49;19.83;;;11.43;;
3573;SDS011;1801;51.050;6.246;2022-07-23T03:57:14;17.00;;;10.67;;
3573;SDS011;1801;51.050;6.246;2022-07-23T03:59:40;20.80;;;10.60;;
3573;SDS011;1801;51.050;6.246;2022-07-23T04:02:05;22.20;;;11.47;;
3573;SDS011;1801;51.050;6.246;2022-07-23T04:04:30;21.00;;;10.57;;
3573;SDS011;1801;51.050;6.246;2022-07-23T04:06:55;21.50;;;11.37;;
3573;SDS011;1801;51.050;6.246;2022-07-23T04:09:20;18.23;;;10.50;;
3573;SDS011;1801;51.050;6.246;2022-07-23T04:11:46;22.30;;;10.20;;
3573;SDS011;1801;51.050;6.246;2022-07-23T04:14:11;19.00;;;10.57;;
3573;SDS011;1801;51.050;6.246;2022-07-23T04:16:36;20.43;;;11.63;;
3573;SDS011;1801;51.050;6.246;2022-07-23T04:19:01;16.13;;;10.20;;
3573;SDS011;1801;51.050;6.246;2022-07-23T04:21:29;19.00;;;11.70;;
3573;SDS011;1801;51.050;6.246;2022-07-23T04:23:54;21.23;;;11.77;;
3573;SDS011;1801;51.050;6.246;2022-07-23T04:26:19;18.53;;;11.43;;
3573;SDS011;1801;51.050;6.246;2022-07-23T04:28:46;22.83;;;12.63;;
3573;SDS011;1801;51.050;6.246;2022-07-23T04:31:11;15.80;;;10.17;;
3573;SDS011;1801;51.050;6.246;2022-07-23T04:33:36;24.77;;;11.63;;
3573;SDS011;1801;51.050;6.246;2022-07-23T04:36:02;21.17;;;12.57;;
3573;SDS011;1801;51.050;6.246;2022-07-23T04:38:27;21.07;;;12.67;;
3573;SDS011;1801;51.050;6.246;2022-07-23T04:40:52;19.43;;;13.10;;
3573;SDS011;1801;51.050;6.246;2022-07-23T04:43:18;25.77;;;13.47;;
3573;SDS011;1801;51.050;6.246;2022-07-23T04:45:43;18.77;;;11.67;;
3573;SDS011;1801;51.050;6.246;2022-07-23T04:48:08;19.00;;;10.73;;
3573;SDS011;1801;51.050;6.246;2022-07-23T04:50:34;25.70;;;12.40;;
3573;SDS011;1801;51.050;6.246;2022-07-23T04:52:59;24.80;;;12.33;;
3573;SDS011;1801;51.050;6.246;2022-07-23T04:55:24;22.03;;;12.80;;
3573;SDS011;1801;51.050;6.246;2022-07-23T04:57:49;21.40;;;11.77;;
3573;SDS011;1801;51.050;6.246;2022-07-23T05:00:15;24.30;;;13.73;;
3573;SDS011;1801;51.050;6.246;2022-07-23T05:02:40;17.43;;;11.20;;
3573;SDS011;1801;51.050;6.246;2022-07-23T05:05:05;22.67;;;13.03;;
3573;SDS011;1801;51.050;6.246;2022-07-23T05:07:31;22.00;;;12.40;;
3573;SDS011;1801;51.050;6.246;2022-07-23T05:09:56;25.23;;;13.37;;
3573;SDS011;1801;51.050;6.246;2022-07-23T05:12:21;25.77;;;11.90;;
3573;SDS011;1801;51.050;6.246;2022-07-23T05:14:46;20.70;;;11.67;;
3573;SDS011;1801;51.050;6.246;2022-07-23T05:17:11;21.17;;;13.20;;
3573;SDS011;1801;51.050;6.246;2022-07-23T05:19:37;21.70;;;12.60;;
3573;SDS011;1801;51.050;6.246;2022-07-23T05:22:02;17.93;;;12.40;;
3573;SDS011;1801;51.050;6.246;2022-07-23T05:24:27;19.60;;;10.70;;
3573;SDS011;1801;51.050;6.246;2022-07-23T05:26:52;23.60;;;13.87;;
3573;SDS011;1801;51.050;6.246;2022-07-23T05:29:18;25.30;;;12.90;;
3573;SDS011;1801;51.050;6.246;2022-07-23T05:31:43;25.83;;;12.50;;
3573;SDS011;1801;51.050;6.246;2022-07-23T05:34:08;23.17;;;14.13;;
3573;SDS011;1801;51.050;6.246;2022-07-23T05:36:33;22.53;;;12.40;;
3573;SDS011;1801;51.050;6.246;2022-07-23T05:38:59;22.93;;;13.27;;
3573;SDS011;1801;51.050;6.246;2022-07-23T05:41:24;25.77;;;13.73;;
3573;SDS011;1801;51.050;6.246;2022-07-23T05:43:49;21.67;;;12.77;;
3573;SDS011;1801;51.050;6.246;2022-07-23T05:46:14;26.03;;;14.50;;
3573;SDS011;1801;51.050;6.246;2022-07-23T05:48:39;26.73;;;13.73;;
3573;SDS011;1801;51.050;6.246;2022-07-23T05:51:06;26.80;;;13.40;;
3573;SDS011;1801;51.050;6.246;2022-07-23T05:53:32;25.03;;;13.93;;
3573;SDS011;1801;51.050;6.246;2022-07-23T05:55:57;23.63;;;13.90;;
3573;SDS011;1801;51.050;6.246;2022-07-23T05:58:22;26.57;;;13.97;;
3573;SDS011;1801;51.050;6.246;2022-07-23T06:00:47;24.20;;;12.80;;
3573;SDS011;1801;51.050;6.246;2022-07-23T06:03:12;25.40;;;13.47;;
3573;SDS011;1801;51.050;6.246;2022-07-23T06:05:38;21.40;;;13.73;;
3573;SDS011;1801;51.050;6.246;2022-07-23T06:08:03;24.37;;;14.40;;
3573;SDS011;1801;51.050;6.246;2022-07-23T06:10:28;27.17;;;15.80;;
3573;SDS011;1801;51.050;6.246;2022-07-23T06:12:53;24.07;;;14.53;;
3573;SDS011;1801;51.050;6.246;2022-07-23T06:15:19;27.90;;;15.73;;
3573;SDS011;1801;51.050;6.246;2022-07-23T06:17:44;24.03;;;13.97;;
3573;SDS011;1801;51.050;6.246;2022-07-23T06:20:09;24.00;;;15.23;;
3573;SDS011;1801;51.050;6.246;2022-07-23T06:22:35;30.07;;;14.60;;
3573;SDS011;1801;51.050;6.246;2022-07-23T06:25:00;28.50;;;16.07;;
3573;SDS011;1801;51.050;6.246;2022-07-23T06:27:25;32.30;;;16.20;;
3573;SDS011;1801;51.050;6.246;2022-07-23T06:29:51;32.20;;;15.80;;
3573;SDS011;1801;51.050;6.246;2022-07-23T06:32:16;26.90;;;14.70;;
3573;SDS011;1801;51.050;6.246;2022-07-23T06:34:41;30.30;;;16.13;;
3573;SDS011;1801;51.050;6.246;2022-07-23T06:37:06;33.77;;;14.73;;
3573;SDS011;1801;51.050;6.246;2022-07-23T06:39:32;30.13;;;15.23;;
3573;SDS011;1801;51.050;6.246;2022-07-23T06:41:57;31.53;;;16.27;;
3573;SDS011;1801;51.050;6.246;2022-07-23T06:44:23;27.83;;;15.90;;
3573;SDS011;1801;51.050;6.246;2022-07-23T06:46:48;32.10;;;17.47;;
3573;SDS011;1801;51.050;6.246;2022-07-23T06:49:13;30.10;;;17.80;;
3573;SDS011;1801;51.050;6.246;2022-07-23T06:51:38;34.07;;;17.77;;
3573;SDS011;1801;51.050;6.246;2022-07-23T06:54:04;34.77;;;18.23;;
3573;SDS011;1801;51.050;6.246;2022-07-23T06:56:29;38.73;;;17.67;;
3573;SDS011;1801;51.050;6.246;2022-07-23T06:58:54;32.43;;;17.43;;
3573;SDS011;1801;51.050;6.246;2022-07-23T07:01:20;46.43;;;19.37;;
3573;SDS011;1801;51.050;6.246;2022-07-23T07:03:46;34.07;;;16.77;;
3573;SDS011;1801;51.050;6.246;2022-07-23T07:06:11;29.37;;;17.37;;
3573;SDS011;1801;51.050;6.246;2022-07-23T07:08:36;31.90;;;16.87;;
3573;SDS011;1801;51.050;6.246;2022-07-23T07:11:02;34.13;;;17.33;;
3573;SDS011;1801;51.050;6.246;2022-07-23T07:13:27;32.37;;;16.93;;
3573;SDS011;1801;51.050;6.246;2022-07-23T07:15:52;36.10;;;16.00;;
3573;SDS011;1801;51.050;6.246;2022-07-23T07:18:18;32.87;;;17.43;;
3573;SDS011;1801;51.050;6.246;2022-07-23T07:20:43;31.10;;;15.90;;
3573;SDS011;1801;51.050;6.246;2022-07-23T07:23:08;28.80;;;16.13;;
3573;SDS011;1801;51.050;6.246;2022-07-23T07:25:33;44.67;;;17.90;;
3573;SDS011;1801;51.050;6.246;2022-07-23T07:27:59;37.10;;;19.03;;
3573;SDS011;1801;51.050;6.246;2022-07-23T07:30:24;29.43;;;14.83;;
3573;SDS011;1801;51.050;6.246;2022-07-23T07:32:49;46.13;;;19.60;;
3573;SDS011;1801;51.050;6.246;2022-07-23T07:35:14;41.13;;;18.53;;
3573;SDS011;1801;51.050;6.246;2022-07-23T07:37:40;36.43;;;18.17;;
3573;SDS011;1801;51.050;6.246;2022-07-23T07:40:05;34.10;;;18.93;;
3573;SDS011;1801;51.050;6.246;2022-07-23T07:42:30;40.80;;;18.40;;
3573;SDS011;1801;51.050;6.246;2022-07-23T07:44:57;37.70;;;19.17;;
3573;SDS011;1801;51.050;6.246;2022-07-23T07:47:22;35.80;;;18.17;;
3573;SDS011;1801;51.050;6.246;2022-07-23T07:49:47;36.77;;;17.10;;
3573;SDS011;1801;51.050;6.246;2022-07-23T07:52:12;31.90;;;15.70;;
3573;SDS011;1801;51.050;6.246;2022-07-23T07:54:38;31.93;;;17.33;;
3573;SDS011;1801;51.050;6.246;2022-07-23T07:57:03;29.50;;;15.80;;
3573;SDS011;1801;51.050;6.246;2022-07-23T07:59:28;29.63;;;14.30;;
3573;SDS011;1801;51.050;6.246;2022-07-23T08:01:53;26.40;;;13.97;;
3573;SDS011;1801;51.050;6.246;2022-07-23T08:04:19;28.73;;;14.77;;
3573;SDS011;1801;51.050;6.246;2022-07-23T08:06:44;23.73;;;11.77;;
3573;SDS011;1801;51.050;6.246;2022-07-23T08:09:09;22.33;;;12.40;;
3573;SDS011;1801;51.050;6.246;2022-07-23T08:11:34;21.23;;;12.93;;
3573;SDS011;1801;51.050;6.246;2022-07-23T08:14:00;25.77;;;14.50;;
3573;SDS011;1801;51.050;6.246;2022-07-23T08:16:25;22.67;;;15.40;;
3573;SDS011;1801;51.050;6.246;2022-07-23T08:18:50;29.97;;;16.50;;
3573;SDS011;1801;51.050;6.246;2022-07-23T08:21:15;23.10;;;14.80;;
3573;SDS011;1801;51.050;6.246;2022-07-23T08:23:41;24.77;;;15.40;;
3573;SDS011;1801;51.050;6.246;2022-07-23T08:26:06;21.23;;;13.63;;
3573;SDS011;1801;51.050;6.246;2022-07-23T08:28:31;18.07;;;12.20;;
3573;SDS011;1801;51.050;6.246;2022-07-23T08:30:59;20.90;;;13.47;;
3573;SDS011;1801;51.050;6.246;2022-07-23T08:33:25;25.20;;;13.00;;
3573;SDS011;1801;51.050;6.246;2022-07-23T08:35:50;20.03;;;11.50;;
3573;SDS011;1801;51.050;6.246;2022-07-23T08:38:18;19.70;;;14.10;;
3573;SDS011;1801;51.050;6.246;2022-07-23T08:40:53;22.47;;;12.73;;
3573;SDS011;1801;51.050;6.246;2022-07-23T08:43:22;19.90;;;11.87;;
3573;SDS011;1801;51.050;6.246;2022-07-23T08:45:49;14.43;;;10.23;;
3573;SDS011;1801;51.050;6.246;2022-07-23T08:48:15;17.17;;;11.47;;
3573;SDS011;1801;51.050;6.246;2022-07-23T08:50:42;18.17;;;10.43;;
3573;SDS011;1801;51.050;6.246;2022-07-23T08:53:08;19.43;;;10.93;;
3573;SDS011;1801;51.050;6.246;2022-07-23T08:55:33;20.13;;;11.73;;
3573;SDS011;1801;51.050;6.246;2022-07-23T08:57:59;18.13;;;10.73;;
3573;SDS011;1801;51.050;6.246;2022-07-23T09:00:25;19.57;;;11.60;;
3573;SDS011;1801;51.050;6.246;2022-07-23T09:02:50;15.03;;;9.93;;
3573;SDS011;1801;51.050;6.246;2022-07-23T09:05:16;18.13;;;10.77;;
3573;SDS011;1801;51.050;6.246;2022-07-23T09:10:26;109.87;;;32.33;;
3573;SDS011;1801;51.050;6.246;2022-07-23T09:12:51;63.70;;;24.13;;
3573;SDS011;1801;51.050;6.246;2022-07-23T09:15:16;22.67;;;13.13;;
3573;SDS011;1801;51.050;6.246;2022-07-23T09:17:42;23.87;;;12.80;;
3573;SDS011;1801;51.050;6.246;2022-07-23T09:20:08;28.60;;;13.97;;
3573;SDS011;1801;51.050;6.246;2022-07-23T09:22:34;25.77;;;10.63;;
3573;SDS011;1801;51.050;6.246;2022-07-23T09:25:13;16.27;;;9.57;;
3573;SDS011;1801;51.050;6.246;2022-07-23T09:27:58;21.33;;;10.93;;
3573;SDS011;1801;51.050;6.246;2022-07-23T09:30:27;15.47;;;10.37;;
3573;SDS011;1801;51.050;6.246;2022-07-23T09:38:14;15.00;;;9.40;;
3573;SDS011;1801;51.050;6.246;2022-07-23T09:40:39;15.77;;;11.00;;
3573;SDS011;1801;51.050;6.246;2022-07-23T09:43:05;14.10;;;9.83;;
3573;SDS011;1801;51.050;6.246;2022-07-23T09:45:30;13.93;;;9.40;;
3573;SDS011;1801;51.050;6.246;2022-07-23T09:48:15;12.77;;;8.53;;
3573;SDS011;1801;51.050;6.246;2022-07-23T09:50:43;12.43;;;8.07;;
3573;SDS011;1801;51.050;6.246;2022-07-23T09:53:09;10.83;;;6.60;;
3573;SDS011;1801;51.050;6.246;2022-07-23T09:55:35;11.73;;;7.90;;
3573;SDS011;1801;51.050;6.246;2022-07-23T09:58:07;15.13;;;9.43;;
3573;SDS011;1801;51.050;6.246;2022-07-23T10:00:42;16.30;;;9.53;;
3573;SDS011;1801;51.050;6.246;2022-07-23T10:03:07;15.40;;;9.00;;
3573;SDS011;1801;51.050;6.246;2022-07-23T10:05:33;17.20;;;9.47;;
3573;SDS011;1801;51.050;6.246;2022-07-23T10:08:01;14.37;;;8.50;;
3573;SDS011;1801;51.050;6.246;2022-07-23T10:10:27;9.43;;;5.90;;
3573;SDS011;1801;51.050;6.246;2022-07-23T10:12:54;9.13;;;6.33;;
3573;SDS011;1801;51.050;6.246;2022-07-23T10:15:31;10.27;;;6.47;;
3573;SDS011;1801;51.050;6.246;2022-07-23T10:17:56;13.53;;;6.27;;
3573;SDS011;1801;51.050;6.246;2022-07-23T10:20:22;14.03;;;5.90;;
3573;SDS011;1801;51.050;6.246;2022-07-23T10:27:57;10.23;;;5.20;;
3573;SDS011;1801;51.050;6.246;2022-07-23T10:38:11;9.20;;;6.20;;
3573;SDS011;1801;51.050;6.246;2022-07-23T10:40:38;8.57;;;5.50;;
3573;SDS011;1801;51.050;6.246;2022-07-23T10:43:15;7.17;;;6.47;;
3573;SDS011;1801;51.050;6.246;2022-07-23T10:45:41;18.63;;;6.60;;
3573;SDS011;1801;51.050;6.246;2022-07-23T10:48:13;13.87;;;5.80;;
3573;SDS011;1801;51.050;6.246;2022-07-23T10:50:39;10.13;;;5.20;;
3573;SDS011;1801;51.050;6.246;2022-07-23T10:53:12;7.77;;;4.90;;
3573;SDS011;1801;51.050;6.246;2022-07-23T10:55:39;7.97;;;5.67;;
3573;SDS011;1801;51.050;6.246;2022-07-23T10:58:05;6.53;;;5.60;;
3573;SDS011;1801;51.050;6.246;2022-07-23T11:00:34;9.63;;;5.50;;
3573;SDS011;1801;51.050;6.246;2022-07-23T11:03:00;9.27;;;5.37;;
3573;SDS011;1801;51.050;6.246;2022-07-23T11:05:27;7.10;;;4.93;;
3573;SDS011;1801;51.050;6.246;2022-07-23T11:10:32;8.10;;;5.03;;
3573;SDS011;1801;51.050;6.246;2022-07-23T11:13:25;5.90;;;3.77;;
3573;SDS011;1801;51.050;6.246;2022-07-23T11:23:58;5.40;;;3.60;;
3573;SDS011;1801;51.050;6.246;2022-07-23T11:26:57;6.77;;;3.93;;
3573;SDS011;1801;51.050;6.246;2022-07-23T11:32:03;4.50;;;3.50;;
3573;SDS011;1801;51.050;6.246;2022-07-23T11:34:39;3.70;;;2.80;;
3573;SDS011;1801;51.050;6.246;2022-07-23T11:37:05;7.57;;;3.50;;
3573;SDS011;1801;51.050;6.246;2022-07-23T11:39:31;5.73;;;4.03;;
3573;SDS011;1801;51.050;6.246;2022-07-23T11:41:56;5.27;;;3.63;;
3573;SDS011;1801;51.050;6.246;2022-07-23T11:44:29;3.83;;;3.50;;
3573;SDS011;1801;51.050;6.246;2022-07-23T11:46:56;5.57;;;3.47;;
3573;SDS011;1801;51.050;6.246;2022-07-23T11:49:21;8.87;;;3.73;;
3573;SDS011;1801;51.050;6.246;2022-07-23T11:51:46;5.87;;;3.77;;
3573;SDS011;1801;51.050;6.246;2022-07-23T11:54:12;6.50;;;3.70;;
3573;SDS011;1801;51.050;6.246;2022-07-23T11:56:37;6.13;;;4.00;;
3573;SDS011;1801;51.050;6.246;2022-07-23T11:59:02;8.90;;;3.87;;
3573;SDS011;1801;51.050;6.246;2022-07-23T12:01:27;5.70;;;3.87;;
3573;SDS011;1801;51.050;6.246;2022-07-23T12:03:52;4.50;;;3.57;;
3573;SDS011;1801;51.050;6.246;2022-07-23T12:06:18;4.10;;;3.13;;
3573;SDS011;1801;51.050;6.246;2022-07-23T12:08:43;5.40;;;3.80;;
3573;SDS011;1801;51.050;6.246;2022-07-23T12:11:09;5.77;;;3.63;;
3573;SDS011;1801;51.050;6.246;2022-07-23T12:13:36;5.30;;;3.67;;
3573;SDS011;1801;51.050;6.246;2022-07-23T12:16:02;5.07;;;3.70;;
3573;SDS011;1801;51.050;6.246;2022-07-23T12:18:27;6.33;;;3.63;;
3573;SDS011;1801;51.050;6.246;2022-07-23T12:20:54;4.90;;;4.00;;
3573;SDS011;1801;51.050;6.246;2022-07-23T12:23:22;4.50;;;4.00;;
3573;SDS011;1801;51.050;6.246;2022-07-23T12:25:48;4.83;;;3.33;;
3573;SDS011;1801;51.050;6.246;2022-07-23T12:28:15;5.80;;;3.50;;
3573;SDS011;1801;51.050;6.246;2022-07-23T12:31:13;3.60;;;2.97;;
3573;SDS011;1801;51.050;6.246;2022-07-23T12:33:33;4.50;;;3.57;;
3573;SDS011;1801;51.050;6.246;2022-07-23T12:35:59;4.17;;;3.70;;
3573;SDS011;1801;51.050;6.246;2022-07-23T12:38:25;7.10;;;3.37;;
3573;SDS011;1801;51.050;6.246;2022-07-23T12:40:54;5.33;;;3.20;;
3573;SDS011;1801;51.050;6.246;2022-07-23T12:43:30;3.50;;;3.10;;
3573;SDS011;1801;51.050;6.246;2022-07-23T12:45:57;4.10;;;3.00;;
3573;SDS011;1801;51.050;6.246;2022-07-23T12:48:24;5.50;;;3.20;;
3573;SDS011;1801;51.050;6.246;2022-07-23T12:50:51;4.60;;;3.10;;
3573;SDS011;1801;51.050;6.246;2022-07-23T12:55:42;4.37;;;3.67;;
3573;SDS011;1801;51.050;6.246;2022-07-23T13:00:50;3.33;;;2.70;;
3573;SDS011;1801;51.050;6.246;2022-07-23T13:03:29;4.70;;;3.20;;
3573;SDS011;1801;51.050;6.246;2022-07-23T13:05:55;4.83;;;3.83;;
3573;SDS011;1801;51.050;6.246;2022-07-23T13:08:21;4.33;;;3.40;;
3573;SDS011;1801;51.050;6.246;2022-07-23T13:10:46;3.10;;;2.57;;
3573;SDS011;1801;51.050;6.246;2022-07-23T13:13:13;4.40;;;2.60;;
3573;SDS011;1801;51.050;6.246;2022-07-23T13:15:39;4.23;;;3.50;;
3573;SDS011;1801;51.050;6.246;2022-07-23T13:18:04;7.83;;;2.93;;
3573;SDS011;1801;51.050;6.246;2022-07-23T13:20:29;2.93;;;2.50;;
3573;SDS011;1801;51.050;6.246;2022-07-23T13:22:56;4.80;;;3.80;;
3573;SDS011;1801;51.050;6.246;2022-07-23T13:25:21;4.90;;;3.57;;
3573;SDS011;1801;51.050;6.246;2022-07-23T13:27:47;7.07;;;3.07;;
3573;SDS011;1801;51.050;6.246;2022-07-23T13:30:12;3.57;;;2.40;;
3573;SDS011;1801;51.050;6.246;2022-07-23T13:32:37;6.03;;;2.90;;
3573;SDS011;1801;51.050;6.246;2022-07-23T13:35:03;3.60;;;3.03;;
3573;SDS011;1801;51.050;6.246;2022-07-23T13:37:28;3.70;;;2.50;;
3573;SDS011;1801;51.050;6.246;2022-07-23T13:39:54;5.87;;;2.80;;
3573;SDS011;1801;51.050;6.246;2022-07-23T13:42:19;3.13;;;2.83;;
3573;SDS011;1801;51.050;6.246;2022-07-23T13:44:44;4.33;;;2.70;;
3573;SDS011;1801;51.050;6.246;2022-07-23T13:47:09;3.43;;;3.10;;
3573;SDS011;1801;51.050;6.246;2022-07-23T13:49:34;6.80;;;4.53;;
3573;SDS011;1801;51.050;6.246;2022-07-23T13:52:00;3.60;;;2.70;;
3573;SDS011;1801;51.050;6.246;2022-07-23T13:54:25;4.67;;;2.93;;
3573;SDS011;1801;51.050;6.246;2022-07-23T13:56:50;7.73;;;3.03;;
3573;SDS011;1801;51.050;6.246;2022-07-23T13:59:16;6.27;;;3.20;;
3573;SDS011;1801;51.050;6.246;2022-07-23T14:01:42;6.60;;;2.90;;
3573;SDS011;1801;51.050;6.246;2022-07-23T14:04:07;4.97;;;3.27;;
3573;SDS011;1801;51.050;6.246;2022-07-23T14:06:32;3.77;;;2.90;;
3573;SDS011;1801;51.050;6.246;2022-07-23T14:08:57;5.40;;;3.10;;
3573;SDS011;1801;51.050;6.246;2022-07-23T14:11:22;4.27;;;2.80;;
3573;SDS011;1801;51.050;6.246;2022-07-23T14:13:48;7.50;;;3.00;;
3573;SDS011;1801;51.050;6.246;2022-07-23T14:16:13;4.53;;;3.17;;
3573;SDS011;1801;51.050;6.246;2022-07-23T14:18:38;3.93;;;3.30;;
3573;SDS011;1801;51.050;6.246;2022-07-23T14:21:03;3.30;;;3.00;;
3573;SDS011;1801;51.050;6.246;2022-07-23T14:23:28;3.30;;;3.00;;
3573;SDS011;1801;51.050;6.246;2022-07-23T14:25:54;8.23;;;3.57;;
3573;SDS011;1801;51.050;6.246;2022-07-23T14:28:19;4.63;;;3.50;;
3573;SDS011;1801;51.050;6.246;2022-07-23T14:30:44;4.33;;;3.27;;
3573;SDS011;1801;51.050;6.246;2022-07-23T14:33:09;5.27;;;3.63;;
3573;SDS011;1801;51.050;6.246;2022-07-23T14:35:34;3.70;;;3.40;;
3573;SDS011;1801;51.050;6.246;2022-07-23T14:38:00;3.57;;;3.10;;
3573;SDS011;1801;51.050;6.246;2022-07-23T14:40:25;3.40;;;3.10;;
3573;SDS011;1801;51.050;6.246;2022-07-23T14:42:51;4.90;;;3.20;;
3573;SDS011;1801;51.050;6.246;2022-07-23T14:45:16;4.50;;;3.00;;
3573;SDS011;1801;51.050;6.246;2022-07-23T14:47:41;11.10;;;3.47;;
3573;SDS011;1801;51.050;6.246;2022-07-23T14:50:07;3.53;;;3.10;;
3573;SDS011;1801;51.050;6.246;2022-07-23T14:52:32;5.57;;;3.90;;
3573;SDS011;1801;51.050;6.246;2022-07-23T14:54:57;7.83;;;3.60;;
3573;SDS011;1801;51.050;6.246;2022-07-23T14:57:22;5.00;;;3.87;;
3573;SDS011;1801;51.050;6.246;2022-07-23T14:59:48;4.10;;;3.67;;
3573;SDS011;1801;51.050;6.246;2022-07-23T15:02:13;5.93;;;3.97;;
3573;SDS011;1801;51.050;6.246;2022-07-23T15:04:38;7.10;;;3.80;;
3573;SDS011;1801;51.050;6.246;2022-07-23T15:07:03;3.47;;;3.13;;
3573;SDS011;1801;51.050;6.246;2022-07-23T15:09:29;5.70;;;4.03;;
3573;SDS011;1801;51.050;6.246;2022-07-23T15:11:54;6.40;;;3.73;;
3573;SDS011;1801;51.050;6.246;2022-07-23T15:14:19;5.33;;;3.70;;
3573;SDS011;1801;51.050;6.246;2022-07-23T15:16:44;4.60;;;3.07;;
3573;SDS011;1801;51.050;6.246;2022-07-23T15:19:10;5.87;;;3.63;;
3573;SDS011;1801;51.050;6.246;2022-07-23T15:21:35;7.70;;;4.10;;
3573;SDS011;1801;51.050;6.246;2022-07-23T15:24:00;4.60;;;4.03;;
3573;SDS011;1801;51.050;6.246;2022-07-23T15:26:26;5.07;;;3.73;;
3573;SDS011;1801;51.050;6.246;2022-07-23T15:28:51;4.27;;;3.87;;
3573;SDS011;1801;51.050;6.246;2022-07-23T15:31:17;8.93;;;4.53;;